MFX1005 UZTT-OPIS
Flight info
| Callsign | MFX1005 |
|---|---|
| Flight time | 1h 33m |
| Altitude | 36000 |
| Route | KUFIM2C KUFIM L170 MOSOM A114 OLRAM L148 AMDAR/N0451F370 M875 TAPIS L509 GIDOG M696 LAJAK L509 NONIB J139 KALMI |
| Aircraft | A320/M-SDE1FGHIJ1RWXY/LB1 |
Departure
| Time | 2026-05-09 17:25 |
|---|---|
| Airport | Tashkent International Airport (UZTT) |
Arrival
| Time | 2026-05-09 18:58 |
|---|---|
| Airport | Islamabad International Airport (OPIS) |
| Time | Latitude | Longitude | Altitude | Speed | Heading |
|---|---|---|---|---|---|
| 2026-05-09 17:17 | 41.26044 | 69.26998 | 1436 ft | 0 kts | 336° |
| 2026-05-09 17:18 | 41.26051 | 69.26994 | 1381 ft | 3 kts | 336° |
| 2026-05-09 17:18 | 41.26077 | 69.26969 | 1379 ft | 3 kts | 353° |
| 2026-05-09 17:18 | 41.26096 | 69.27010 | 1381 ft | 8 kts | 66° |
| 2026-05-09 17:19 | 41.26121 | 69.27100 | 1380 ft | 13 kts | 70° |
| 2026-05-09 17:19 | 41.26100 | 69.27200 | 1380 ft | 14 kts | 139° |
| 2026-05-09 17:19 | 41.26072 | 69.27309 | 1382 ft | 15 kts | 82° |
| 2026-05-09 17:19 | 41.26090 | 69.27471 | 1382 ft | 20 kts | 81° |
| 2026-05-09 17:20 | 41.26113 | 69.27675 | 1379 ft | 25 kts | 82° |
| 2026-05-09 17:20 | 41.26140 | 69.27918 | 1380 ft | 29 kts | 82° |
| 2026-05-09 17:20 | 41.26165 | 69.28145 | 1382 ft | 24 kts | 81° |
| 2026-05-09 17:20 | 41.26190 | 69.28369 | 1381 ft | 20 kts | 82° |
| 2026-05-09 17:21 | 41.26185 | 69.28578 | 1381 ft | 25 kts | 93° |
| 2026-05-09 17:21 | 41.26185 | 69.28829 | 1380 ft | 29 kts | 86° |
| 2026-05-09 17:21 | 41.26195 | 69.29089 | 1381 ft | 29 kts | 87° |
| 2026-05-09 17:21 | 41.26206 | 69.29374 | 1382 ft | 33 kts | 87° |
| 2026-05-09 17:22 | 41.26217 | 69.29686 | 1382 ft | 36 kts | 87° |
| 2026-05-09 17:22 | 41.26226 | 69.29939 | 1380 ft | 17 kts | 91° |
| 2026-05-09 17:22 | 41.26143 | 69.30067 | 1382 ft | 16 kts | 142° |
| 2026-05-09 17:22 | 41.26058 | 69.30025 | 1379 ft | 18 kts | 256° |
| 2026-05-09 17:23 | 41.26032 | 69.29802 | 1383 ft | 46 kts | 262° |
| 2026-05-09 17:23 | 41.25949 | 69.29048 | 1378 ft | 115 kts | 261° |
| 2026-05-09 17:23 | 41.25802 | 69.27741 | 1385 ft | 168 kts | 261° |
| 2026-05-09 17:23 | 41.25615 | 69.26151 | 1890 ft | 174 kts | 263° |
| 2026-05-09 17:25 | 41.23114 | 69.17360 | 4102 ft | 268 kts | 222° |
| 2026-05-09 17:25 | 41.21690 | 69.15709 | 4860 ft | 275 kts | 223° |
| 2026-05-09 17:25 | 41.20261 | 69.14034 | 5848 ft | 272 kts | 222° |
| 2026-05-09 17:25 | 41.18853 | 69.12376 | 6853 ft | 269 kts | 223° |
| 2026-05-09 17:26 | 41.17457 | 69.10732 | 7808 ft | 268 kts | 223° |
| 2026-05-09 17:26 | 41.16059 | 69.09085 | 8734 ft | 268 kts | 223° |
| 2026-05-09 17:26 | 41.14666 | 69.07446 | 9656 ft | 268 kts | 224° |
| 2026-05-09 17:26 | 41.13259 | 69.05790 | 10354 ft | 277 kts | 224° |
| 2026-05-09 17:27 | 41.11760 | 69.04021 | 10593 ft | 300 kts | 224° |
| 2026-05-09 17:27 | 41.10167 | 69.02143 | 10868 ft | 319 kts | 224° |
| 2026-05-09 17:27 | 41.08485 | 69.00167 | 11473 ft | 326 kts | 223° |
| 2026-05-09 17:27 | 41.06773 | 68.98165 | 12210 ft | 329 kts | 223° |
| 2026-05-09 17:28 | 41.05042 | 68.96149 | 12922 ft | 333 kts | 223° |
| 2026-05-09 17:28 | 41.03290 | 68.94112 | 13633 ft | 336 kts | 223° |
| 2026-05-09 17:28 | 41.01530 | 68.92064 | 14298 ft | 338 kts | 224° |
| 2026-05-09 17:28 | 40.99759 | 68.89999 | 14817 ft | 341 kts | 224° |
| 2026-05-09 17:29 | 40.97984 | 68.87926 | 14975 ft | 340 kts | 224° |
| 2026-05-09 17:29 | 40.96210 | 68.85858 | 15009 ft | 340 kts | 224° |
| 2026-05-09 17:29 | 40.95034 | 68.84489 | 15009 ft | 339 kts | 224° |
| 2026-05-09 17:29 | 40.93263 | 68.82431 | 15009 ft | 338 kts | 224° |
| 2026-05-09 17:30 | 40.91491 | 68.80376 | 15015 ft | 338 kts | 224° |
| 2026-05-09 17:30 | 40.89718 | 68.78325 | 15011 ft | 338 kts | 223° |
| 2026-05-09 17:30 | 40.87950 | 68.76279 | 15011 ft | 338 kts | 224° |
| 2026-05-09 17:30 | 40.86183 | 68.74227 | 15010 ft | 338 kts | 224° |
| 2026-05-09 17:31 | 40.84416 | 68.72173 | 15013 ft | 338 kts | 224° |
| 2026-05-09 17:31 | 40.82647 | 68.70121 | 15008 ft | 338 kts | 223° |
| 2026-05-09 17:32 | 40.73809 | 68.65201 | 16648 ft | 356 kts | 202° |
| 2026-05-09 17:32 | 40.71444 | 68.64184 | 17262 ft | 359 kts | 202° |
| 2026-05-09 17:32 | 40.69060 | 68.63146 | 17878 ft | 362 kts | 203° |
| 2026-05-09 17:33 | 40.66665 | 68.62069 | 18460 ft | 365 kts | 204° |
| 2026-05-09 17:33 | 40.64256 | 68.60964 | 18992 ft | 367 kts | 204° |
| 2026-05-09 17:33 | 40.61837 | 68.59849 | 19541 ft | 370 kts | 204° |
| 2026-05-09 17:33 | 40.59400 | 68.58733 | 20087 ft | 372 kts | 204° |
| 2026-05-09 17:34 | 40.56941 | 68.57617 | 20624 ft | 375 kts | 203° |
| 2026-05-09 17:35 | 40.41735 | 68.51221 | 23676 ft | 390 kts | 201° |
| 2026-05-09 17:35 | 40.39133 | 68.50168 | 24067 ft | 392 kts | 201° |
| 2026-05-09 17:36 | 40.36521 | 68.49102 | 24444 ft | 394 kts | 201° |
| 2026-05-09 17:36 | 40.33894 | 68.48023 | 24769 ft | 397 kts | 202° |
| 2026-05-09 17:36 | 40.31248 | 68.46932 | 25097 ft | 400 kts | 202° |
| 2026-05-09 17:36 | 40.28577 | 68.45831 | 25447 ft | 403 kts | 202° |
| 2026-05-09 17:37 | 40.25899 | 68.44730 | 25791 ft | 405 kts | 201° |
| 2026-05-09 17:37 | 40.23201 | 68.43625 | 26132 ft | 407 kts | 201° |
| 2026-05-09 17:37 | 40.20489 | 68.42516 | 26477 ft | 410 kts | 201° |
| 2026-05-09 17:37 | 40.17760 | 68.41401 | 26811 ft | 412 kts | 201° |
| 2026-05-09 17:38 | 40.15018 | 68.40284 | 27138 ft | 414 kts | 201° |
| 2026-05-09 17:38 | 40.12261 | 68.39160 | 27444 ft | 416 kts | 201° |
| 2026-05-09 17:38 | 40.09482 | 68.38026 | 27706 ft | 419 kts | 201° |
| 2026-05-09 17:39 | 40.03875 | 68.35738 | 28310 ft | 424 kts | 201° |
| 2026-05-09 17:39 | 40.01089 | 68.34602 | 28591 ft | 426 kts | 201° |
| 2026-05-09 17:39 | 39.98257 | 68.33450 | 28870 ft | 428 kts | 201° |
| 2026-05-09 17:39 | 39.95408 | 68.32295 | 29145 ft | 430 kts | 201° |
| 2026-05-09 17:40 | 39.92551 | 68.31141 | 29418 ft | 431 kts | 201° |
| 2026-05-09 17:40 | 39.89679 | 68.29976 | 29638 ft | 433 kts | 201° |
| 2026-05-09 17:40 | 39.86796 | 68.28808 | 29925 ft | 433 kts | 201° |
| 2026-05-09 17:40 | 39.83919 | 68.27639 | 30259 ft | 433 kts | 201° |
| 2026-05-09 17:41 | 39.81043 | 68.26475 | 30566 ft | 432 kts | 201° |
| 2026-05-09 17:41 | 39.78176 | 68.25318 | 30840 ft | 432 kts | 201° |
| 2026-05-09 17:41 | 39.75306 | 68.24161 | 31097 ft | 432 kts | 201° |
| 2026-05-09 17:41 | 39.72439 | 68.23007 | 31345 ft | 432 kts | 201° |
| 2026-05-09 17:42 | 39.69568 | 68.21853 | 31629 ft | 431 kts | 201° |
| 2026-05-09 17:42 | 39.66711 | 68.20708 | 31927 ft | 431 kts | 201° |
| 2026-05-09 17:42 | 39.63849 | 68.19560 | 32227 ft | 430 kts | 201° |
| 2026-05-09 17:42 | 39.60982 | 68.18409 | 32514 ft | 430 kts | 201° |
| 2026-05-09 17:43 | 39.58123 | 68.17260 | 32832 ft | 429 kts | 202° |
| 2026-05-09 17:43 | 39.55266 | 68.16122 | 33134 ft | 429 kts | 201° |
| 2026-05-09 17:43 | 39.52397 | 68.15042 | 33422 ft | 429 kts | 200° |
| 2026-05-09 17:43 | 39.49556 | 68.14025 | 33688 ft | 429 kts | 200° |
| 2026-05-09 17:44 | 39.46674 | 68.13022 | 34024 ft | 429 kts | 200° |
| 2026-05-09 17:44 | 39.43790 | 68.12023 | 34300 ft | 427 kts | 201° |
| 2026-05-09 17:44 | 39.40942 | 68.11029 | 34701 ft | 422 kts | 201° |
| 2026-05-09 17:44 | 39.38123 | 68.10035 | 35050 ft | 418 kts | 202° |
| 2026-05-09 17:45 | 39.35325 | 68.09036 | 35350 ft | 416 kts | 202° |
| 2026-05-09 17:45 | 39.32539 | 68.08037 | 35628 ft | 415 kts | 201° |
| 2026-05-09 17:45 | 39.29763 | 68.07040 | 35895 ft | 414 kts | 202° |
| 2026-05-09 17:45 | 39.26990 | 68.06044 | 36092 ft | 413 kts | 202° |
| 2026-05-09 17:46 | 39.24217 | 68.05053 | 36136 ft | 413 kts | 203° |
| 2026-05-09 17:46 | 39.18692 | 68.03090 | 36146 ft | 411 kts | 202° |
| 2026-05-09 17:47 | 39.13202 | 68.01136 | 36144 ft | 409 kts | 202° |
| 2026-05-09 17:47 | 39.07715 | 67.99189 | 36143 ft | 409 kts | 202° |
| 2026-05-09 17:48 | 39.02225 | 67.97244 | 36136 ft | 409 kts | 202° |
| 2026-05-09 17:48 | 38.96790 | 67.95168 | 36139 ft | 407 kts | 202° |
| 2026-05-09 17:49 | 38.91378 | 67.92973 | 36107 ft | 408 kts | 204° |
| 2026-05-09 17:49 | 38.85953 | 67.90802 | 36111 ft | 408 kts | 204° |
| 2026-05-09 17:50 | 38.80558 | 67.88683 | 36111 ft | 407 kts | 204° |
| 2026-05-09 17:50 | 38.72407 | 67.85488 | 36058 ft | 410 kts | 203° |
| 2026-05-09 17:51 | 38.66935 | 67.83366 | 36062 ft | 411 kts | 203° |
| 2026-05-09 17:51 | 38.61480 | 67.81302 | 36037 ft | 412 kts | 202° |
| 2026-05-09 17:52 | 38.55983 | 67.79226 | 36012 ft | 412 kts | 203° |
| 2026-05-09 17:52 | 38.50477 | 67.77134 | 35990 ft | 413 kts | 203° |
| 2026-05-09 17:53 | 38.44959 | 67.75033 | 35966 ft | 413 kts | 204° |
| 2026-05-09 17:53 | 38.39428 | 67.72937 | 35975 ft | 415 kts | 204° |
| 2026-05-09 17:54 | 38.33928 | 67.70858 | 35965 ft | 415 kts | 203° |
| 2026-05-09 17:54 | 38.28384 | 67.68765 | 35939 ft | 416 kts | 204° |
| 2026-05-09 17:55 | 38.22838 | 67.66672 | 35952 ft | 415 kts | 204° |
| 2026-05-09 17:55 | 38.17248 | 67.64721 | 35940 ft | 417 kts | 201° |
| 2026-05-09 17:56 | 38.11605 | 67.62975 | 35943 ft | 418 kts | 201° |
| 2026-05-09 17:57 | 38.03139 | 67.60352 | 35907 ft | 417 kts | 201° |
| 2026-05-09 17:57 | 37.97503 | 67.58543 | 35902 ft | 417 kts | 201° |
| 2026-05-09 17:58 | 37.91867 | 67.56730 | 35906 ft | 417 kts | 201° |
| 2026-05-09 17:58 | 37.86234 | 67.54938 | 35903 ft | 417 kts | 201° |
| 2026-05-09 17:59 | 37.80591 | 67.53159 | 35890 ft | 417 kts | 202° |
| 2026-05-09 17:59 | 37.74963 | 67.51373 | 35897 ft | 417 kts | 202° |
| 2026-05-09 18:00 | 37.69341 | 67.49580 | 35899 ft | 417 kts | 202° |
| 2026-05-09 18:00 | 37.63714 | 67.47806 | 35902 ft | 417 kts | 202° |
| 2026-05-09 18:01 | 37.58127 | 67.46044 | 35887 ft | 417 kts | 202° |
| 2026-05-09 18:01 | 37.52506 | 67.44269 | 35891 ft | 416 kts | 202° |
| 2026-05-09 18:02 | 37.46886 | 67.42499 | 35895 ft | 416 kts | 202° |
| 2026-05-09 18:02 | 37.41258 | 67.40733 | 35897 ft | 416 kts | 202° |
| 2026-05-09 18:03 | 37.35634 | 67.38970 | 35901 ft | 416 kts | 202° |
| 2026-05-09 18:03 | 37.30010 | 67.37210 | 35873 ft | 416 kts | 202° |
| 2026-05-09 18:04 | 37.24327 | 67.35645 | 35901 ft | 426 kts | 193° |
| 2026-05-09 18:04 | 37.21310 | 67.35681 | 36089 ft | 440 kts | 182° |
| 2026-05-09 18:04 | 37.18312 | 67.36488 | 36285 ft | 454 kts | 171° |
| 2026-05-09 18:04 | 37.15375 | 67.38100 | 36475 ft | 468 kts | 160° |
| 2026-05-09 18:05 | 37.12532 | 67.40081 | 36626 ft | 468 kts | 160° |
| 2026-05-09 18:05 | 37.09679 | 67.42071 | 36780 ft | 469 kts | 160° |
| 2026-05-09 18:05 | 37.06827 | 67.44062 | 36900 ft | 470 kts | 160° |
| 2026-05-09 18:06 | 37.01112 | 67.48040 | 36909 ft | 470 kts | 160° |
| 2026-05-09 18:06 | 36.95389 | 67.51995 | 36920 ft | 469 kts | 160° |
| 2026-05-09 18:07 | 36.89658 | 67.55942 | 36927 ft | 472 kts | 160° |
| 2026-05-09 18:07 | 36.83930 | 67.59890 | 36937 ft | 473 kts | 160° |
| 2026-05-09 18:08 | 36.78127 | 67.63890 | 36942 ft | 474 kts | 160° |
| 2026-05-09 18:08 | 36.72349 | 67.67861 | 36947 ft | 474 kts | 160° |
| 2026-05-09 18:09 | 36.66618 | 67.71804 | 36962 ft | 474 kts | 160° |
| 2026-05-09 18:09 | 36.60829 | 67.75790 | 36967 ft | 475 kts | 161° |
| 2026-05-09 18:10 | 36.55044 | 67.79770 | 36969 ft | 476 kts | 160° |
| 2026-05-09 18:10 | 36.49267 | 67.83744 | 36939 ft | 474 kts | 160° |
| 2026-05-09 18:11 | 36.43483 | 67.87712 | 36969 ft | 474 kts | 160° |
| 2026-05-09 18:11 | 36.37687 | 67.91670 | 36973 ft | 475 kts | 160° |
| 2026-05-09 18:12 | 36.31888 | 67.95626 | 36961 ft | 476 kts | 160° |
| 2026-05-09 18:12 | 36.26080 | 67.99589 | 36995 ft | 476 kts | 160° |
| 2026-05-09 18:13 | 36.20300 | 68.03518 | 37020 ft | 477 kts | 160° |
| 2026-05-09 18:13 | 36.14478 | 68.07471 | 37032 ft | 477 kts | 160° |
| 2026-05-09 18:14 | 36.09639 | 68.10754 | 37038 ft | 476 kts | 160° |
| 2026-05-09 18:14 | 36.03828 | 68.14691 | 37067 ft | 476 kts | 160° |
| 2026-05-09 18:15 | 35.98005 | 68.18624 | 37065 ft | 477 kts | 160° |
| 2026-05-09 18:15 | 35.92176 | 68.22561 | 37069 ft | 477 kts | 160° |
| 2026-05-09 18:16 | 35.86341 | 68.26492 | 37063 ft | 479 kts | 160° |
| 2026-05-09 18:16 | 35.80492 | 68.30428 | 37068 ft | 479 kts | 160° |
| 2026-05-09 18:17 | 35.74633 | 68.34366 | 37061 ft | 480 kts | 160° |
| 2026-05-09 18:17 | 35.68764 | 68.38303 | 37063 ft | 481 kts | 160° |
| 2026-05-09 18:18 | 35.62876 | 68.42241 | 37065 ft | 482 kts | 160° |
| 2026-05-09 18:18 | 35.57007 | 68.46161 | 37090 ft | 483 kts | 160° |
| 2026-05-09 18:19 | 35.51092 | 68.50081 | 37111 ft | 483 kts | 160° |
| 2026-05-09 18:19 | 35.42205 | 68.55935 | 37126 ft | 484 kts | 160° |
| 2026-05-09 18:20 | 35.36289 | 68.59840 | 37138 ft | 484 kts | 160° |
| 2026-05-09 18:20 | 35.30363 | 68.63753 | 37126 ft | 480 kts | 160° |
| 2026-05-09 18:21 | 35.24461 | 68.67634 | 37137 ft | 484 kts | 159° |
| 2026-05-09 18:21 | 35.18528 | 68.71531 | 37138 ft | 484 kts | 160° |
| 2026-05-09 18:22 | 35.12619 | 68.75406 | 37134 ft | 486 kts | 160° |
| 2026-05-09 18:22 | 35.06676 | 68.79302 | 37099 ft | 484 kts | 159° |
| 2026-05-09 18:23 | 35.00717 | 68.83198 | 37101 ft | 487 kts | 160° |
| 2026-05-09 18:23 | 34.94743 | 68.87092 | 37050 ft | 487 kts | 159° |
| 2026-05-09 18:24 | 34.88762 | 68.90982 | 37048 ft | 487 kts | 159° |
| 2026-05-09 18:25 | 34.79767 | 68.96835 | 37018 ft | 489 kts | 159° |
| 2026-05-09 18:25 | 34.73754 | 69.00734 | 36990 ft | 490 kts | 159° |
| 2026-05-09 18:26 | 34.67758 | 69.04611 | 37001 ft | 491 kts | 159° |
| 2026-05-09 18:26 | 34.61720 | 69.08511 | 37012 ft | 491 kts | 159° |
| 2026-05-09 18:27 | 34.55726 | 69.12552 | 37013 ft | 497 kts | 152° |
| 2026-05-09 18:27 | 34.50621 | 69.18364 | 36989 ft | 513 kts | 131° |
| 2026-05-09 18:27 | 34.48685 | 69.22001 | 36992 ft | 518 kts | 120° |
| 2026-05-09 18:28 | 34.47039 | 69.25907 | 36987 ft | 519 kts | 120° |
| 2026-05-09 18:28 | 34.43755 | 69.33700 | 36960 ft | 520 kts | 120° |
| 2026-05-09 18:29 | 34.40443 | 69.41484 | 36966 ft | 520 kts | 120° |
| 2026-05-09 18:29 | 34.37120 | 69.49271 | 36978 ft | 521 kts | 120° |
| 2026-05-09 18:30 | 34.33816 | 69.56997 | 36980 ft | 520 kts | 120° |
| 2026-05-09 18:30 | 34.30481 | 69.64789 | 37002 ft | 520 kts | 119° |
| 2026-05-09 18:31 | 34.27148 | 69.72564 | 36991 ft | 521 kts | 120° |
| 2026-05-09 18:31 | 34.23806 | 69.80338 | 36988 ft | 521 kts | 120° |
| 2026-05-09 18:32 | 34.20460 | 69.88114 | 36992 ft | 521 kts | 120° |
| 2026-05-09 18:32 | 34.17106 | 69.95877 | 36998 ft | 521 kts | 120° |
| 2026-05-09 18:33 | 34.13735 | 70.03617 | 37004 ft | 521 kts | 120° |
| 2026-05-09 18:33 | 34.10351 | 70.11320 | 36969 ft | 519 kts | 120° |
| 2026-05-09 18:34 | 34.06956 | 70.19016 | 36980 ft | 520 kts | 120° |
| 2026-05-09 18:34 | 34.03574 | 70.26729 | 36974 ft | 520 kts | 120° |
| 2026-05-09 18:35 | 34.00186 | 70.34432 | 36976 ft | 521 kts | 120° |
| 2026-05-09 18:35 | 33.96783 | 70.42139 | 36973 ft | 521 kts | 120° |
| 2026-05-09 18:36 | 33.93124 | 70.49569 | 36971 ft | 518 kts | 131° |
| 2026-05-09 18:36 | 33.88194 | 70.55781 | 36959 ft | 511 kts | 141° |
| 2026-05-09 18:37 | 33.83019 | 70.61659 | 36970 ft | 511 kts | 140° |
| 2026-05-09 18:37 | 33.77850 | 70.67537 | 36970 ft | 511 kts | 140° |
| 2026-05-09 18:38 | 33.72681 | 70.73410 | 36493 ft | 513 kts | 140° |
| 2026-05-09 18:38 | 33.70057 | 70.76381 | 35397 ft | 520 kts | 140° |
| 2026-05-09 18:38 | 33.67421 | 70.79358 | 34696 ft | 519 kts | 139° |
| 2026-05-09 18:40 | 33.50444 | 71.00930 | 29513 ft | 498 kts | 111° |
| 2026-05-09 18:40 | 33.49455 | 71.04861 | 28689 ft | 491 kts | 98° |
| 2026-05-09 18:40 | 33.49181 | 71.08879 | 28353 ft | 475 kts | 86° |
| 2026-05-09 18:41 | 33.49386 | 71.12698 | 27952 ft | 457 kts | 83° |
| 2026-05-09 18:41 | 33.49619 | 71.16453 | 27067 ft | 448 kts | 83° |
| 2026-05-09 18:41 | 33.49848 | 71.20161 | 26579 ft | 442 kts | 84° |
| 2026-05-09 18:41 | 33.50073 | 71.23810 | 26150 ft | 436 kts | 84° |
| 2026-05-09 18:42 | 33.50295 | 71.27419 | 25682 ft | 431 kts | 84° |
| 2026-05-09 18:42 | 33.50516 | 71.30979 | 25206 ft | 426 kts | 84° |
| 2026-05-09 18:42 | 33.50738 | 71.34507 | 24733 ft | 422 kts | 84° |
| 2026-05-09 18:42 | 33.50960 | 71.38003 | 24257 ft | 419 kts | 84° |
| 2026-05-09 18:43 | 33.51179 | 71.41466 | 23771 ft | 417 kts | 84° |
| 2026-05-09 18:43 | 33.51396 | 71.44931 | 23245 ft | 415 kts | 84° |
| 2026-05-09 18:43 | 33.51608 | 71.48369 | 22729 ft | 412 kts | 84° |
| 2026-05-09 18:43 | 33.51815 | 71.51780 | 22225 ft | 408 kts | 84° |
| 2026-05-09 18:44 | 33.52019 | 71.55160 | 21745 ft | 405 kts | 84° |
| 2026-05-09 18:44 | 33.52221 | 71.58518 | 21247 ft | 403 kts | 84° |
| 2026-05-09 18:44 | 33.52419 | 71.61810 | 20770 ft | 400 kts | 84° |
| 2026-05-09 18:44 | 33.52618 | 71.65120 | 20351 ft | 395 kts | 84° |
| 2026-05-09 18:45 | 33.52816 | 71.68400 | 19869 ft | 393 kts | 84° |
| 2026-05-09 18:45 | 33.53009 | 71.71644 | 19439 ft | 389 kts | 84° |
| 2026-05-09 18:45 | 33.53199 | 71.74857 | 18815 ft | 382 kts | 84° |
| 2026-05-09 18:45 | 33.53382 | 71.78012 | 18010 ft | 378 kts | 84° |
| 2026-05-09 18:46 | 33.53564 | 71.81142 | 17128 ft | 374 kts | 84° |
| 2026-05-09 18:46 | 33.53744 | 71.84229 | 16280 ft | 369 kts | 84° |
| 2026-05-09 18:46 | 33.53921 | 71.87284 | 15483 ft | 365 kts | 84° |
| 2026-05-09 18:46 | 33.54100 | 71.90309 | 15017 ft | 362 kts | 84° |
| 2026-05-09 18:47 | 33.54282 | 71.93314 | 14587 ft | 360 kts | 84° |
| 2026-05-09 18:47 | 33.54462 | 71.96305 | 14150 ft | 359 kts | 84° |
| 2026-05-09 18:47 | 33.54638 | 71.99286 | 13747 ft | 357 kts | 84° |
| 2026-05-09 18:47 | 33.54810 | 72.02235 | 13270 ft | 356 kts | 85° |
| 2026-05-09 18:48 | 33.54913 | 72.05178 | 12921 ft | 350 kts | 88° |
| 2026-05-09 18:48 | 33.54927 | 72.08090 | 12491 ft | 348 kts | 89° |
| 2026-05-09 18:48 | 33.54897 | 72.10984 | 12058 ft | 345 kts | 90° |
| 2026-05-09 18:48 | 33.54858 | 72.13810 | 11617 ft | 344 kts | 90° |
| 2026-05-09 18:49 | 33.54826 | 72.16673 | 11177 ft | 342 kts | 90° |
| 2026-05-09 18:49 | 33.54804 | 72.19510 | 10731 ft | 340 kts | 90° |
| 2026-05-09 18:49 | 33.54786 | 72.22344 | 10282 ft | 339 kts | 90° |
| 2026-05-09 18:49 | 33.54774 | 72.25154 | 9994 ft | 332 kts | 89° |
| 2026-05-09 18:50 | 33.54764 | 72.27868 | 9887 ft | 319 kts | 90° |
| 2026-05-09 18:50 | 33.54759 | 72.30484 | 9671 ft | 309 kts | 90° |
| 2026-05-09 18:50 | 33.54754 | 72.33041 | 9021 ft | 306 kts | 90° |
| 2026-05-09 18:50 | 33.54747 | 72.35586 | 8629 ft | 304 kts | 90° |
| 2026-05-09 18:51 | 33.54737 | 72.38110 | 8267 ft | 302 kts | 90° |
| 2026-05-09 18:51 | 33.54697 | 72.40607 | 7816 ft | 297 kts | 96° |
| 2026-05-09 18:51 | 33.54258 | 72.43012 | 7416 ft | 295 kts | 111° |
| 2026-05-09 18:51 | 33.53469 | 72.45261 | 7011 ft | 290 kts | 114° |
| 2026-05-09 18:52 | 33.52674 | 72.47481 | 6618 ft | 288 kts | 114° |
| 2026-05-09 18:52 | 33.51891 | 72.49663 | 6218 ft | 279 kts | 114° |
| 2026-05-09 18:52 | 33.51137 | 72.51763 | 5838 ft | 277 kts | 114° |
| 2026-05-09 18:52 | 33.50446 | 72.53904 | 5459 ft | 275 kts | 103° |
| 2026-05-09 18:53 | 33.50528 | 72.56158 | 5086 ft | 273 kts | 70° |
| 2026-05-09 18:53 | 33.51564 | 72.57990 | 4843 ft | 263 kts | 38° |
| 2026-05-09 18:53 | 33.53139 | 72.58942 | 4704 ft | 249 kts | 16° |
| 2026-05-09 18:53 | 33.54729 | 72.59629 | 4542 ft | 239 kts | 27° |
| 2026-05-09 18:54 | 33.56038 | 72.60786 | 4403 ft | 230 kts | 46° |
| 2026-05-09 18:54 | 33.56944 | 72.62316 | 4253 ft | 221 kts | 65° |
| 2026-05-09 18:54 | 33.57401 | 72.64021 | 4107 ft | 209 kts | 82° |
| 2026-05-09 18:54 | 33.57424 | 72.65729 | 4008 ft | 204 kts | 99° |
| 2026-05-09 18:55 | 33.57177 | 72.67376 | 3807 ft | 196 kts | 102° |
| 2026-05-09 18:55 | 33.56936 | 72.68933 | 3581 ft | 183 kts | 102° |
| 2026-05-09 18:55 | 33.56712 | 72.70373 | 3374 ft | 168 kts | 103° |
| 2026-05-09 18:55 | 33.56509 | 72.71683 | 3185 ft | 154 kts | 103° |
| 2026-05-09 18:56 | 33.56317 | 72.72915 | 2991 ft | 148 kts | 103° |
| 2026-05-09 18:56 | 33.56129 | 72.74119 | 2803 ft | 145 kts | 104° |
| 2026-05-09 18:56 | 33.55948 | 72.75285 | 2632 ft | 143 kts | 103° |
| 2026-05-09 18:56 | 33.55766 | 72.76454 | 2453 ft | 139 kts | 103° |
| 2026-05-09 18:57 | 33.55587 | 72.77576 | 2272 ft | 138 kts | 101° |
| 2026-05-09 18:57 | 33.55408 | 72.78709 | 2082 ft | 139 kts | 100° |
| 2026-05-09 18:57 | 33.55238 | 72.79841 | 1903 ft | 137 kts | 100° |
| 2026-05-09 18:57 | 33.55061 | 72.80960 | 1774 ft | 133 kts | 100° |
| 2026-05-09 18:58 | 33.54912 | 72.81907 | 1758 ft | 93 kts | 101° |
| 2026-05-09 18:58 | 33.54823 | 72.82467 | 1757 ft | 47 kts | 100° |
| 2026-05-09 18:58 | 33.54769 | 72.82811 | 1761 ft | 35 kts | 100° |
| 2026-05-09 18:58 | 33.54793 | 72.83073 | 1766 ft | 21 kts | 67° |
| 2026-05-09 18:59 | 33.54817 | 72.83149 | 1764 ft | 8 kts | 70° |
| 2026-05-09 18:59 | 33.54828 | 72.83184 | 1766 ft | 0 kts | 70° |
| 2026-05-09 18:59 | 33.54837 | 72.83216 | 1768 ft | 8 kts | 70° |
| 2026-05-09 19:00 | 33.54863 | 72.83316 | 1764 ft | 17 kts | 77° |
| 2026-05-09 19:00 | 33.54923 | 72.83463 | 1765 ft | 3 kts | 13° |
| 2026-05-09 19:00 | 33.54961 | 72.83474 | 1768 ft | 8 kts | 13° |
| 2026-05-09 19:01 | 33.55035 | 72.83494 | 1770 ft | 14 kts | 10° |
| 2026-05-09 19:01 | 33.55065 | 72.83451 | 1769 ft | 8 kts | 279° |
| 2026-05-09 19:01 | 33.55079 | 72.83351 | 1768 ft | 16 kts | 279° |
| 2026-05-09 19:01 | 33.55102 | 72.83186 | 1769 ft | 24 kts | 280° |
| 2026-05-09 19:02 | 33.55126 | 72.83043 | 1770 ft | 12 kts | 289° |
| 2026-05-09 19:02 | 33.55165 | 72.83009 | 1771 ft | 10 kts | 346° |
| 2026-05-09 19:02 | 33.55189 | 72.83015 | 1770 ft | 0 kts | 24° |
| 2026-05-09 19:03 | 33.55192 | 72.83017 | 1771 ft | 2 kts | 24° |
| 2026-05-09 19:03 | 33.55218 | 72.83052 | 1769 ft | 9 kts | 57° |
| 2026-05-09 19:03 | 33.55246 | 72.83100 | 1769 ft | 2 kts | 48° |
| 2026-05-09 19:03 | 33.55249 | 72.83104 | 1769 ft | 0 kts | 48° |
| 2026-05-09 19:04 | 33.55266 | 72.83134 | 1769 ft | 8 kts | 56° |
| 2026-05-09 19:04 | 33.55322 | 72.83155 | 1771 ft | 13 kts | 323° |
| 2026-05-09 19:04 | 33.55368 | 72.83117 | 1770 ft | 0 kts | 326° |